sensor_id;sensor_type;location;lat;lon;timestamp;temperature;humidity
11423;DHT22;5768;51.476;7.210;2022-08-01T00:43:09;20.00;99.90
11423;DHT22;5768;51.476;7.210;2022-08-01T01:04:31;19.80;99.90
11423;DHT22;5768;51.476;7.210;2022-08-01T01:32:51;20.00;99.90
11423;DHT22;5768;51.476;7.210;2022-08-01T01:51:21;20.20;99.90
11423;DHT22;5768;51.476;7.210;2022-08-01T01:54:29;20.10;99.90
11423;DHT22;5768;51.476;7.210;2022-08-01T01:57:38;20.10;99.90
11423;DHT22;5768;51.476;7.210;2022-08-01T02:09:57;20.00;99.90
11423;DHT22;5768;51.476;7.210;2022-08-01T03:24:12;19.80;99.90
11423;DHT22;5768;51.476;7.210;2022-08-01T03:36:32;19.60;99.90
11423;DHT22;5768;51.476;7.210;2022-08-01T04:07:29;19.60;99.90
11423;DHT22;5768;51.476;7.210;2022-08-01T04:10:33;19.70;99.90
11423;DHT22;5768;51.476;7.210;2022-08-01T04:13:35;19.70;99.90
11423;DHT22;5768;51.476;7.210;2022-08-01T04:38:09;19.70;99.90
11423;DHT22;5768;51.476;7.210;2022-08-01T04:41:14;19.60;99.90
11423;DHT22;5768;51.476;7.210;2022-08-01T04:44:18;19.80;99.90
11423;DHT22;5768;51.476;7.210;2022-08-01T04:47:21;19.70;99.90
11423;DHT22;5768;51.476;7.210;2022-08-01T04:59:37;19.90;99.90
11423;DHT22;5768;51.476;7.210;2022-08-01T05:45:29;20.50;99.90
11423;DHT22;5768;51.476;7.210;2022-08-01T05:48:31;20.70;99.90
11423;DHT22;5768;51.476;7.210;2022-08-01T05:51:35;20.70;99.90
11423;DHT22;5768;51.476;7.210;2022-08-01T05:54:37;20.50;99.90
11423;DHT22;5768;51.476;7.210;2022-08-01T05:57:39;20.50;99.90
11423;DHT22;5768;51.476;7.210;2022-08-01T06:00:44;20.30;99.90
11423;DHT22;5768;51.476;7.210;2022-08-01T06:16:03;20.70;99.90
11423;DHT22;5768;51.476;7.210;2022-08-01T06:28:15;21.20;99.90
11423;DHT22;5768;51.476;7.210;2022-08-01T06:31:17;21.30;99.90
11423;DHT22;5768;51.476;7.210;2022-08-01T06:37:27;21.10;99.90
11423;DHT22;5768;51.476;7.210;2022-08-01T06:40:30;21.10;99.90
11423;DHT22;5768;51.476;7.210;2022-08-01T06:43:32;21.20;99.90
11423;DHT22;5768;51.476;7.210;2022-08-01T07:23:15;21.50;85.60
11423;DHT22;5768;51.476;7.210;2022-08-01T07:26:17;21.60;81.90
11423;DHT22;5768;51.476;7.210;2022-08-01T07:29:19;22.60;36.00
11423;DHT22;5768;51.476;7.210;2022-08-01T07:32:22;22.20;29.00
11423;DHT22;5768;51.476;7.210;2022-08-01T07:41:33;23.40;26.30
11423;DHT22;5768;51.476;7.210;2022-08-01T07:44:35;23.40;26.10
11423;DHT22;5768;51.476;7.210;2022-08-01T07:47:38;23.30;24.20
11423;DHT22;5768;51.476;7.210;2022-08-01T07:50:40;23.30;24.80
11423;DHT22;5768;51.476;7.210;2022-08-01T07:53:43;23.30;25.00
11423;DHT22;5768;51.476;7.210;2022-08-01T08:02:54;23.20;22.50
11423;DHT22;5768;51.476;7.210;2022-08-01T08:18:12;23.40;23.40
11423;DHT22;5768;51.476;7.210;2022-08-01T08:21:14;23.60;23.60
11423;DHT22;5768;51.476;7.210;2022-08-01T08:24:18;23.30;22.80
11423;DHT22;5768;51.476;7.210;2022-08-01T08:27:24;23.80;22.80
11423;DHT22;5768;51.476;7.210;2022-08-01T08:30:26;24.00;22.00
11423;DHT22;5768;51.476;7.210;2022-08-01T08:36:32;24.70;21.20
11423;DHT22;5768;51.476;7.210;2022-08-01T08:42:39;23.90;21.10
11423;DHT22;5768;51.476;7.210;2022-08-01T08:45:43;24.00;21.40
11423;DHT22;5768;51.476;7.210;2022-08-01T08:48:46;24.00;21.60
11423;DHT22;5768;51.476;7.210;2022-08-01T08:51:51;23.60;22.00
11423;DHT22;5768;51.476;7.210;2022-08-01T08:54:56;24.00;22.20
11423;DHT22;5768;51.476;7.210;2022-08-01T08:58:00;24.50;22.20
11423;DHT22;5768;51.476;7.210;2022-08-01T09:01:07;24.50;22.00
11423;DHT22;5768;51.476;7.210;2022-08-01T09:04:11;24.20;22.00
11423;DHT22;5768;51.476;7.210;2022-08-01T09:25:51;24.60;18.60
11423;DHT22;5768;51.476;7.210;2022-08-01T09:28:54;24.50;18.80
11423;DHT22;5768;51.476;7.210;2022-08-01T09:31:57;24.00;19.60
11423;DHT22;5768;51.476;7.210;2022-08-01T09:35:24;24.00;19.80
11423;DHT22;5768;51.476;7.210;2022-08-01T09:44:38;24.10;19.60
11423;DHT22;5768;51.476;7.210;2022-08-01T09:50:46;24.80;20.70
11423;DHT22;5768;51.476;7.210;2022-08-01T09:53:50;25.60;18.70
11423;DHT22;5768;51.476;7.210;2022-08-01T09:56:54;25.50;18.80
11423;DHT22;5768;51.476;7.210;2022-08-01T10:00:17;24.90;19.40
11423;DHT22;5768;51.476;7.210;2022-08-01T10:03:21;24.70;19.20
11423;DHT22;5768;51.476;7.210;2022-08-01T10:06:24;24.60;19.30
11423;DHT22;5768;51.476;7.210;2022-08-01T10:09:28;24.60;19.50
11423;DHT22;5768;51.476;7.210;2022-08-01T10:12:33;24.60;19.40
11423;DHT22;5768;51.476;7.210;2022-08-01T10:18:41;25.50;19.20
11423;DHT22;5768;51.476;7.210;2022-08-01T10:21:44;26.30;19.00
11423;DHT22;5768;51.476;7.210;2022-08-01T10:24:52;25.90;18.80
11423;DHT22;5768;51.476;7.210;2022-08-01T10:27:59;25.40;19.30
11423;DHT22;5768;51.476;7.210;2022-08-01T10:31:08;25.40;19.00
11423;DHT22;5768;51.476;7.210;2022-08-01T10:34:11;25.10;19.00
11423;DHT22;5768;51.476;7.210;2022-08-01T10:37:15;25.20;18.60
11423;DHT22;5768;51.476;7.210;2022-08-01T10:40:18;24.90;19.30
11423;DHT22;5768;51.476;7.210;2022-08-01T10:43:23;24.80;19.90
11423;DHT22;5768;51.476;7.210;2022-08-01T10:49:34;24.60;20.20
11423;DHT22;5768;51.476;7.210;2022-08-01T10:52:40;24.20;20.00
11423;DHT22;5768;51.476;7.210;2022-08-01T10:55:51;24.50;19.80
11423;DHT22;5768;51.476;7.210;2022-08-01T10:59:03;24.80;20.40
11423;DHT22;5768;51.476;7.210;2022-08-01T11:02:06;25.00;20.10
11423;DHT22;5768;51.476;7.210;2022-08-01T11:05:11;25.30;19.90
11423;DHT22;5768;51.476;7.210;2022-08-01T11:08:22;25.40;19.80
11423;DHT22;5768;51.476;7.210;2022-08-01T11:11:26;25.80;19.90
11423;DHT22;5768;51.476;7.210;2022-08-01T11:14:29;26.70;18.70
11423;DHT22;5768;51.476;7.210;2022-08-01T14:09:22;35.80;9.40
11423;DHT22;5768;51.476;7.210;2022-08-01T14:12:25;34.80;9.50
11423;DHT22;5768;51.476;7.210;2022-08-01T14:15:28;34.00;9.80
11423;DHT22;5768;51.476;7.210;2022-08-01T14:18:30;33.70;9.80
11423;DHT22;5768;51.476;7.210;2022-08-01T14:21:34;35.20;9.50
11423;DHT22;5768;51.476;7.210;2022-08-01T14:24:36;34.40;9.40
11423;DHT22;5768;51.476;7.210;2022-08-01T14:27:38;34.50;9.50
11423;DHT22;5768;51.476;7.210;2022-08-01T14:30:42;34.10;9.60
11423;DHT22;5768;51.476;7.210;2022-08-01T14:33:46;33.30;9.80
11423;DHT22;5768;51.476;7.210;2022-08-01T14:36:49;33.10;9.90
11423;DHT22;5768;51.476;7.210;2022-08-01T14:39:53;32.50;10.00
11423;DHT22;5768;51.476;7.210;2022-08-01T14:42:59;32.50;10.10
11423;DHT22;5768;51.476;7.210;2022-08-01T14:46:02;32.10;10.20
11423;DHT22;5768;51.476;7.210;2022-08-01T14:49:05;32.00;10.10
11423;DHT22;5768;51.476;7.210;2022-08-01T14:52:09;31.60;10.20
11423;DHT22;5768;51.476;7.210;2022-08-01T14:55:12;32.00;10.10
11423;DHT22;5768;51.476;7.210;2022-08-01T14:58:15;32.90;9.90
11423;DHT22;5768;51.476;7.210;2022-08-01T15:01:17;33.60;9.70
11423;DHT22;5768;51.476;7.210;2022-08-01T15:04:19;33.70;9.80
11423;DHT22;5768;51.476;7.210;2022-08-01T15:07:22;33.30;9.90
11423;DHT22;5768;51.476;7.210;2022-08-01T15:10:24;32.50;10.00
11423;DHT22;5768;51.476;7.210;2022-08-01T15:13:27;31.40;10.30
11423;DHT22;5768;51.476;7.210;2022-08-01T15:16:29;31.00;10.40
11423;DHT22;5768;51.476;7.210;2022-08-01T15:19:31;30.10;10.50
11423;DHT22;5768;51.476;7.210;2022-08-01T15:22:35;29.70;10.60
11423;DHT22;5768;51.476;7.210;2022-08-01T15:25:37;29.20;10.90
11423;DHT22;5768;51.476;7.210;2022-08-01T15:28:39;29.20;11.00
11423;DHT22;5768;51.476;7.210;2022-08-01T15:31:42;29.60;10.90
11423;DHT22;5768;51.476;7.210;2022-08-01T15:34:44;30.60;10.50
11423;DHT22;5768;51.476;7.210;2022-08-01T15:37:48;31.00;10.40
11423;DHT22;5768;51.476;7.210;2022-08-01T15:40:50;30.40;10.50
11423;DHT22;5768;51.476;7.210;2022-08-01T15:43:52;29.80;10.70
11423;DHT22;5768;51.476;7.210;2022-08-01T15:46:54;29.60;10.70
11423;DHT22;5768;51.476;7.210;2022-08-01T15:49:56;29.50;10.80
11423;DHT22;5768;51.476;7.210;2022-08-01T15:53:03;29.40;10.80
11423;DHT22;5768;51.476;7.210;2022-08-01T15:56:06;29.40;10.80
11423;DHT22;5768;51.476;7.210;2022-08-01T15:59:08;30.30;10.70
11423;DHT22;5768;51.476;7.210;2022-08-01T16:02:11;30.40;10.50
11423;DHT22;5768;51.476;7.210;2022-08-01T16:05:13;30.20;10.70
11423;DHT22;5768;51.476;7.210;2022-08-01T16:08:17;29.60;10.60
11423;DHT22;5768;51.476;7.210;2022-08-01T16:11:20;29.30;10.60
11423;DHT22;5768;51.476;7.210;2022-08-01T16:14:23;28.40;10.90
11423;DHT22;5768;51.476;7.210;2022-08-01T16:17:25;29.50;10.70
11423;DHT22;5768;51.476;7.210;2022-08-01T16:20:28;29.70;10.60
11423;DHT22;5768;51.476;7.210;2022-08-01T16:23:32;29.30;10.70
11423;DHT22;5768;51.476;7.210;2022-08-01T16:26:34;28.80;10.60
11423;DHT22;5768;51.476;7.210;2022-08-01T16:29:37;28.40;10.90
11423;DHT22;5768;51.476;7.210;2022-08-01T16:32:39;27.90;11.00
11423;DHT22;5768;51.476;7.210;2022-08-01T16:35:41;27.90;11.20
11423;DHT22;5768;51.476;7.210;2022-08-01T16:38:45;27.70;11.30
11423;DHT22;5768;51.476;7.210;2022-08-01T16:41:47;28.40;11.30
11423;DHT22;5768;51.476;7.210;2022-08-01T16:44:50;28.90;10.90
11423;DHT22;5768;51.476;7.210;2022-08-01T16:47:52;29.20;10.90
11423;DHT22;5768;51.476;7.210;2022-08-01T16:50:56;30.50;10.70
11423;DHT22;5768;51.476;7.210;2022-08-01T16:54:00;31.40;10.30
11423;DHT22;5768;51.476;7.210;2022-08-01T16:57:02;31.40;10.30
11423;DHT22;5768;51.476;7.210;2022-08-01T17:00:06;31.20;10.20
11423;DHT22;5768;51.476;7.210;2022-08-01T17:03:10;30.90;10.30
11423;DHT22;5768;51.476;7.210;2022-08-01T17:06:12;30.30;10.40
11423;DHT22;5768;51.476;7.210;2022-08-01T17:09:16;29.80;10.50
11423;DHT22;5768;51.476;7.210;2022-08-01T17:12:18;29.00;10.80
11423;DHT22;5768;51.476;7.210;2022-08-01T17:15:20;31.60;10.40
11423;DHT22;5768;51.476;7.210;2022-08-01T17:18:23;30.70;10.30
11423;DHT22;5768;51.476;7.210;2022-08-01T17:21:25;30.40;10.40
11423;DHT22;5768;51.476;7.210;2022-08-01T17:24:28;29.60;10.60
11423;DHT22;5768;51.476;7.210;2022-08-01T17:27:31;29.20;10.80
11423;DHT22;5768;51.476;7.210;2022-08-01T17:30:33;29.90;10.70
11423;DHT22;5768;51.476;7.210;2022-08-01T17:33:39;29.30;10.70
11423;DHT22;5768;51.476;7.210;2022-08-01T17:36:41;28.20;10.90
11423;DHT22;5768;51.476;7.210;2022-08-01T17:39:44;27.80;11.10
11423;DHT22;5768;51.476;7.210;2022-08-01T17:42:47;27.50;11.30
11423;DHT22;5768;51.476;7.210;2022-08-01T17:45:49;26.80;11.40
11423;DHT22;5768;51.476;7.210;2022-08-01T17:48:52;26.20;11.60
11423;DHT22;5768;51.476;7.210;2022-08-01T17:51:54;26.00;11.90
11423;DHT22;5768;51.476;7.210;2022-08-01T17:55:01;27.60;11.20
11423;DHT22;5768;51.476;7.210;2022-08-01T17:58:03;27.20;11.40
11423;DHT22;5768;51.476;7.210;2022-08-01T18:01:06;26.80;11.30
11423;DHT22;5768;51.476;7.210;2022-08-01T18:04:10;26.70;11.40
11423;DHT22;5768;51.476;7.210;2022-08-01T18:07:12;26.30;11.60
11423;DHT22;5768;51.476;7.210;2022-08-01T18:10:16;26.00;11.70
11423;DHT22;5768;51.476;7.210;2022-08-01T18:13:18;26.10;11.90
11423;DHT22;5768;51.476;7.210;2022-08-01T18:16:20;28.40;11.30
11423;DHT22;5768;51.476;7.210;2022-08-01T18:19:23;30.90;10.70
11423;DHT22;5768;51.476;7.210;2022-08-01T18:22:25;32.30;10.30
11423;DHT22;5768;51.476;7.210;2022-08-01T18:25:29;33.40;9.90
11423;DHT22;5768;51.476;7.210;2022-08-01T18:28:31;34.70;9.60
11423;DHT22;5768;51.476;7.210;2022-08-01T18:31:38;35.10;9.30
11423;DHT22;5768;51.476;7.210;2022-08-01T18:34:40;35.10;9.30
11423;DHT22;5768;51.476;7.210;2022-08-01T18:37:42;35.70;9.20
11423;DHT22;5768;51.476;7.210;2022-08-01T18:40:46;35.40;9.20
11423;DHT22;5768;51.476;7.210;2022-08-01T18:43:48;34.90;9.20
11423;DHT22;5768;51.476;7.210;2022-08-01T18:46:50;34.40;9.30
11423;DHT22;5768;51.476;7.210;2022-08-01T18:49:54;33.40;9.50
11423;DHT22;5768;51.476;7.210;2022-08-01T18:52:56;31.40;9.90
11423;DHT22;5768;51.476;7.210;2022-08-01T18:56:00;30.00;10.20
11423;DHT22;5768;51.476;7.210;2022-08-01T18:59:03;28.80;10.50
11423;DHT22;5768;51.476;7.210;2022-08-01T19:02:06;27.80;10.80
11423;DHT22;5768;51.476;7.210;2022-08-01T19:05:08;27.00;11.10
11423;DHT22;5768;51.476;7.210;2022-08-01T19:08:11;26.30;11.40
11423;DHT22;5768;51.476;7.210;2022-08-01T19:11:14;25.90;11.70
11423;DHT22;5768;51.476;7.210;2022-08-01T19:14:16;25.40;11.90
11423;DHT22;5768;51.476;7.210;2022-08-01T19:17:19;25.10;12.10
11423;DHT22;5768;51.476;7.210;2022-08-01T19:20:21;24.80;12.30
11423;DHT22;5768;51.476;7.210;2022-08-01T19:23:23;24.40;12.50
11423;DHT22;5768;51.476;7.210;2022-08-01T19:26:48;24.20;12.80
11423;DHT22;5768;51.476;7.210;2022-08-01T19:29:55;24.10;13.00
11423;DHT22;5768;51.476;7.210;2022-08-01T19:32:59;23.90;13.00
11423;DHT22;5768;51.476;7.210;2022-08-01T19:36:02;23.90;13.20
11423;DHT22;5768;51.476;7.210;2022-08-01T19:39:05;23.80;13.20
11423;DHT22;5768;51.476;7.210;2022-08-01T19:42:11;23.60;13.40
11423;DHT22;5768;51.476;7.210;2022-08-01T19:45:14;23.50;13.50
11423;DHT22;5768;51.476;7.210;2022-08-01T19:48:17;23.40;13.60
11423;DHT22;5768;51.476;7.210;2022-08-01T19:51:23;23.20;13.70
11423;DHT22;5768;51.476;7.210;2022-08-01T19:54:31;23.10;13.90
11423;DHT22;5768;51.476;7.210;2022-08-01T19:57:37;23.00;13.90
11423;DHT22;5768;51.476;7.210;2022-08-01T20:00:42;22.90;14.00
11423;DHT22;5768;51.476;7.210;2022-08-01T20:03:47;22.80;14.10
11423;DHT22;5768;51.476;7.210;2022-08-01T20:06:51;22.70;14.40
11423;DHT22;5768;51.476;7.210;2022-08-01T20:09:54;22.60;14.90
11423;DHT22;5768;51.476;7.210;2022-08-01T20:12:59;22.50;14.70
11423;DHT22;5768;51.476;7.210;2022-08-01T20:16:04;22.40;14.50
11423;DHT22;5768;51.476;7.210;2022-08-01T20:19:08;22.40;14.80
11423;DHT22;5768;51.476;7.210;2022-08-01T20:22:11;22.30;14.60
11423;DHT22;5768;51.476;7.210;2022-08-01T20:25:17;22.20;14.70
11423;DHT22;5768;51.476;7.210;2022-08-01T20:28:27;22.10;14.70
11423;DHT22;5768;51.476;7.210;2022-08-01T20:31:30;22.00;14.70
11423;DHT22;5768;51.476;7.210;2022-08-01T20:34:34;22.00;14.90
11423;DHT22;5768;51.476;7.210;2022-08-01T20:37:38;22.10;14.90
11423;DHT22;5768;51.476;7.210;2022-08-01T20:40:43;21.80;15.00
11423;DHT22;5768;51.476;7.210;2022-08-01T20:43:51;21.60;15.10
11423;DHT22;5768;51.476;7.210;2022-08-01T20:46:55;21.70;15.10
11423;DHT22;5768;51.476;7.210;2022-08-01T20:49:58;21.60;15.30
11423;DHT22;5768;51.476;7.210;2022-08-01T20:53:14;21.40;15.50
11423;DHT22;5768;51.476;7.210;2022-08-01T20:56:27;21.30;15.90
11423;DHT22;5768;51.476;7.210;2022-08-01T20:59:36;21.20;15.80
11423;DHT22;5768;51.476;7.210;2022-08-01T21:02:49;21.10;15.90
11423;DHT22;5768;51.476;7.210;2022-08-01T21:06:03;21.00;16.10
11423;DHT22;5768;51.476;7.210;2022-08-01T21:09:16;20.90;16.20
11423;DHT22;5768;51.476;7.210;2022-08-01T21:12:26;20.90;16.40
11423;DHT22;5768;51.476;7.210;2022-08-01T21:15:38;20.80;16.60
11423;DHT22;5768;51.476;7.210;2022-08-01T21:18:50;20.80;16.50
11423;DHT22;5768;51.476;7.210;2022-08-01T21:22:01;20.70;16.70
11423;DHT22;5768;51.476;7.210;2022-08-01T21:25:09;20.60;16.60
11423;DHT22;5768;51.476;7.210;2022-08-01T21:28:19;20.50;17.00
11423;DHT22;5768;51.476;7.210;2022-08-01T21:31:24;20.40;17.00
11423;DHT22;5768;51.476;7.210;2022-08-01T21:34:28;20.40;16.90
11423;DHT22;5768;51.476;7.210;2022-08-01T21:37:30;20.40;17.00
11423;DHT22;5768;51.476;7.210;2022-08-01T21:40:34;20.30;17.90
11423;DHT22;5768;51.476;7.210;2022-08-01T21:43:37;20.20;17.60
11423;DHT22;5768;51.476;7.210;2022-08-01T21:46:42;20.10;17.70
11423;DHT22;5768;51.476;7.210;2022-08-01T21:49:46;20.10;17.90
11423;DHT22;5768;51.476;7.210;2022-08-01T21:52:57;20.10;18.30
11423;DHT22;5768;51.476;7.210;2022-08-01T21:56:16;20.00;18.50
11423;DHT22;5768;51.476;7.210;2022-08-01T21:59:45;19.80;18.70
11423;DHT22;5768;51.476;7.210;2022-08-01T22:02:59;19.80;19.10
11423;DHT22;5768;51.476;7.210;2022-08-01T22:06:05;19.80;19.20
11423;DHT22;5768;51.476;7.210;2022-08-01T22:09:08;19.70;20.10
11423;DHT22;5768;51.476;7.210;2022-08-01T22:12:11;19.60;19.80
11423;DHT22;5768;51.476;7.210;2022-08-01T22:15:14;19.70;19.80
11423;DHT22;5768;51.476;7.210;2022-08-01T22:18:17;19.60;19.80
11423;DHT22;5768;51.476;7.210;2022-08-01T22:21:20;19.50;20.70
11423;DHT22;5768;51.476;7.210;2022-08-01T22:24:23;19.50;21.00
11423;DHT22;5768;51.476;7.210;2022-08-01T22:27:26;19.50;20.80
11423;DHT22;5768;51.476;7.210;2022-08-01T22:30:29;19.40;20.40
11423;DHT22;5768;51.476;7.210;2022-08-01T22:33:37;19.40;21.10
11423;DHT22;5768;51.476;7.210;2022-08-01T22:36:39;19.30;21.40
11423;DHT22;5768;51.476;7.210;2022-08-01T22:39:42;19.20;23.20
11423;DHT22;5768;51.476;7.210;2022-08-01T22:42:45;19.30;23.10
11423;DHT22;5768;51.476;7.210;2022-08-01T22:46:03;19.10;23.00
11423;DHT22;5768;51.476;7.210;2022-08-01T22:49:24;19.10;22.40
11423;DHT22;5768;51.476;7.210;2022-08-01T22:52:34;19.00;23.10
11423;DHT22;5768;51.476;7.210;2022-08-01T22:55:48;19.00;23.50
11423;DHT22;5768;51.476;7.210;2022-08-01T22:58:53;19.00;23.30
11423;DHT22;5768;51.476;7.210;2022-08-01T23:02:00;19.00;24.90
11423;DHT22;5768;51.476;7.210;2022-08-01T23:05:07;18.90;24.70
11423;DHT22;5768;51.476;7.210;2022-08-01T23:08:15;18.80;24.40
11423;DHT22;5768;51.476;7.210;2022-08-01T23:11:19;18.70;25.40
11423;DHT22;5768;51.476;7.210;2022-08-01T23:14:21;18.70;25.30
11423;DHT22;5768;51.476;7.210;2022-08-01T23:17:28;18.70;24.70
11423;DHT22;5768;51.476;7.210;2022-08-01T23:20:33;18.60;25.50
11423;DHT22;5768;51.476;7.210;2022-08-01T23:23:36;18.60;24.80
11423;DHT22;5768;51.476;7.210;2022-08-01T23:26:41;18.60;25.40
11423;DHT22;5768;51.476;7.210;2022-08-01T23:29:46;18.60;25.60
11423;DHT22;5768;51.476;7.210;2022-08-01T23:32:49;18.50;25.30
11423;DHT22;5768;51.476;7.210;2022-08-01T23:35:53;18.40;26.50
11423;DHT22;5768;51.476;7.210;2022-08-01T23:38:55;18.40;27.50
11423;DHT22;5768;51.476;7.210;2022-08-01T23:41:58;18.30;26.80
11423;DHT22;5768;51.476;7.210;2022-08-01T23:45:00;18.20;27.20
11423;DHT22;5768;51.476;7.210;2022-08-01T23:48:02;18.30;28.20
11423;DHT22;5768;51.476;7.210;2022-08-01T23:51:06;18.20;28.50
11423;DHT22;5768;51.476;7.210;2022-08-01T23:54:08;18.00;27.10
11423;DHT22;5768;51.476;7.210;2022-08-01T23:57:10;18.20;29.10
